sensor_id;sensor_type;location;lat;lon;timestamp;pressure;altitude;pressure_sealevel;temperature;humidity
5595;BME280;1003;48.002;7.788;2023-02-07T00:00:53;100450.22;;;1.20;100.00
5595;BME280;1003;48.002;7.788;2023-02-07T00:03:20;100450.63;;;1.11;100.00
5595;BME280;1003;48.002;7.788;2023-02-07T00:05:49;100453.03;;;1.10;100.00
5595;BME280;1003;48.002;7.788;2023-02-07T00:08:16;100450.03;;;0.99;100.00
5595;BME280;1003;48.002;7.788;2023-02-07T00:10:46;100457.69;;;1.03;100.00
5595;BME280;1003;48.002;7.788;2023-02-07T00:13:13;100454.00;;;0.95;100.00
5595;BME280;1003;48.002;7.788;2023-02-07T00:15:40;100458.09;;;0.95;100.00
5595;BME280;1003;48.002;7.788;2023-02-07T00:18:07;100438.47;;;0.82;100.00
5595;BME280;1003;48.002;7.788;2023-02-07T00:20:34;100450.47;;;0.74;100.00
5595;BME280;1003;48.002;7.788;2023-02-07T00:23:02;100467.72;;;0.72;100.00
5595;BME280;1003;48.002;7.788;2023-02-07T00:25:29;100472.66;;;0.40;100.00
5595;BME280;1003;48.002;7.788;2023-02-07T00:27:56;100471.47;;;0.17;100.00
5595;BME280;1003;48.002;7.788;2023-02-07T00:30:23;100488.03;;;0.03;100.00
5595;BME280;1003;48.002;7.788;2023-02-07T00:32:50;100506.66;;;-0.18;100.00
5595;BME280;1003;48.002;7.788;2023-02-07T00:35:17;100525.16;;;-0.27;100.00
5595;BME280;1003;48.002;7.788;2023-02-07T00:37:45;100536.16;;;-0.36;100.00
5595;BME280;1003;48.002;7.788;2023-02-07T00:40:13;100545.38;;;-0.48;100.00
5595;BME280;1003;48.002;7.788;2023-02-07T00:42:40;100545.94;;;-0.67;100.00
5595;BME280;1003;48.002;7.788;2023-02-07T00:45:08;100548.38;;;-0.82;100.00
5595;BME280;1003;48.002;7.788;2023-02-07T00:47:35;100569.72;;;-0.83;100.00
5595;BME280;1003;48.002;7.788;2023-02-07T00:50:03;100573.50;;;-1.02;100.00
5595;BME280;1003;48.002;7.788;2023-02-07T00:52:30;100613.81;;;-0.89;100.00
5595;BME280;1003;48.002;7.788;2023-02-07T00:54:57;100608.03;;;-0.89;100.00
5595;BME280;1003;48.002;7.788;2023-02-07T00:57:25;100573.09;;;-0.67;100.00
5595;BME280;1003;48.002;7.788;2023-02-07T00:59:52;100530.03;;;-0.58;100.00
5595;BME280;1003;48.002;7.788;2023-02-07T01:02:19;100493.91;;;-0.41;100.00
5595;BME280;1003;48.002;7.788;2023-02-07T01:04:46;100454.69;;;-0.20;100.00
5595;BME280;1003;48.002;7.788;2023-02-07T01:07:13;100416.81;;;-0.35;100.00
5595;BME280;1003;48.002;7.788;2023-02-07T01:09:40;100403.09;;;-0.30;100.00
5595;BME280;1003;48.002;7.788;2023-02-07T01:12:08;100377.84;;;-0.56;100.00
5595;BME280;1003;48.002;7.788;2023-02-07T01:14:36;100364.69;;;-0.71;100.00
5595;BME280;1003;48.002;7.788;2023-02-07T01:17:03;100345.38;;;-0.78;100.00
5595;BME280;1003;48.002;7.788;2023-02-07T01:19:30;100336.38;;;-0.77;100.00
5595;BME280;1003;48.002;7.788;2023-02-07T01:21:57;100317.19;;;-0.36;100.00
5595;BME280;1003;48.002;7.788;2023-02-07T01:24:25;100319.44;;;-0.24;100.00
5595;BME280;1003;48.002;7.788;2023-02-07T01:26:52;100313.41;;;0.04;100.00
5595;BME280;1003;48.002;7.788;2023-02-07T01:29:19;100302.31;;;-0.05;100.00
5595;BME280;1003;48.002;7.788;2023-02-07T01:31:47;100304.59;;;-0.24;100.00
5595;BME280;1003;48.002;7.788;2023-02-07T01:34:14;100317.66;;;-0.27;100.00
5595;BME280;1003;48.002;7.788;2023-02-07T01:36:41;100330.88;;;-0.26;100.00
5595;BME280;1003;48.002;7.788;2023-02-07T01:39:08;100331.41;;;-0.15;100.00
5595;BME280;1003;48.002;7.788;2023-02-07T01:41:36;100339.13;;;-0.09;100.00
5595;BME280;1003;48.002;7.788;2023-02-07T01:44:06;100326.59;;;-0.12;100.00
5595;BME280;1003;48.002;7.788;2023-02-07T01:46:35;100318.28;;;-0.31;100.00
5595;BME280;1003;48.002;7.788;2023-02-07T01:49:07;100316.78;;;-0.27;100.00
5595;BME280;1003;48.002;7.788;2023-02-07T01:51:40;100320.19;;;-0.41;100.00
5595;BME280;1003;48.002;7.788;2023-02-07T01:54:10;100320.19;;;-0.41;100.00
5595;BME280;1003;48.002;7.788;2023-02-07T01:56:43;100308.22;;;-0.34;100.00
5595;BME280;1003;48.002;7.788;2023-02-07T01:59:12;100315.06;;;-0.44;100.00
5595;BME280;1003;48.002;7.788;2023-02-07T02:01:42;100307.44;;;-0.33;100.00
5595;BME280;1003;48.002;7.788;2023-02-07T02:04:12;100308.09;;;-0.37;100.00
5595;BME280;1003;48.002;7.788;2023-02-07T02:06:40;100296.09;;;-0.29;100.00
5595;BME280;1003;48.002;7.788;2023-02-07T02:09:12;100294.66;;;-0.25;100.00
5595;BME280;1003;48.002;7.788;2023-02-07T02:12:18;100308.31;;;-0.32;100.00
5595;BME280;1003;48.002;7.788;2023-02-07T02:15:13;100323.63;;;-0.38;100.00
5595;BME280;1003;48.002;7.788;2023-02-07T02:18:12;100318.09;;;-0.34;100.00
5595;BME280;1003;48.002;7.788;2023-02-07T02:27:49;100343.81;;;-0.30;100.00
5595;BME280;1003;48.002;7.788;2023-02-07T02:30:55;100334.78;;;-0.30;100.00
5595;BME280;1003;48.002;7.788;2023-02-07T02:33:43;100343.00;;;-0.45;100.00
5595;BME280;1003;48.002;7.788;2023-02-07T02:36:27;100357.72;;;-0.63;100.00
5595;BME280;1003;48.002;7.788;2023-02-07T02:39:08;100358.97;;;-0.55;100.00
5595;BME280;1003;48.002;7.788;2023-02-07T02:41:48;100365.00;;;-0.65;100.00
5595;BME280;1003;48.002;7.788;2023-02-07T02:44:25;100359.06;;;-0.54;100.00
5595;BME280;1003;48.002;7.788;2023-02-07T02:46:56;100366.28;;;-0.57;100.00
5595;BME280;1003;48.002;7.788;2023-02-07T02:49:27;100379.69;;;-0.37;100.00
5595;BME280;1003;48.002;7.788;2023-02-07T02:51:56;100368.63;;;-0.43;100.00
5595;BME280;1003;48.002;7.788;2023-02-07T02:54:29;100382.78;;;-0.41;100.00
5595;BME280;1003;48.002;7.788;2023-02-07T02:57:15;100383.88;;;-0.36;100.00
5595;BME280;1003;48.002;7.788;2023-02-07T03:00:22;100397.00;;;-0.37;100.00
5595;BME280;1003;48.002;7.788;2023-02-07T03:03:16;100394.78;;;-0.32;100.00
5595;BME280;1003;48.002;7.788;2023-02-07T03:06:04;100395.16;;;-0.24;100.00
5595;BME280;1003;48.002;7.788;2023-02-07T03:08:43;100399.84;;;-0.29;100.00
5595;BME280;1003;48.002;7.788;2023-02-07T03:11:15;100381.94;;;-0.41;100.00
5595;BME280;1003;48.002;7.788;2023-02-07T03:13:58;100404.53;;;-0.34;100.00
5595;BME280;1003;48.002;7.788;2023-02-07T03:16:33;100399.88;;;-0.44;100.00
5595;BME280;1003;48.002;7.788;2023-02-07T03:19:07;100379.22;;;-0.61;100.00
5595;BME280;1003;48.002;7.788;2023-02-07T03:21:42;100373.81;;;-0.70;100.00
5595;BME280;1003;48.002;7.788;2023-02-07T03:24:15;100377.28;;;-0.81;100.00
5595;BME280;1003;48.002;7.788;2023-02-07T03:26:45;100378.34;;;-0.92;100.00
5595;BME280;1003;48.002;7.788;2023-02-07T03:29:16;100380.06;;;-0.91;100.00
5595;BME280;1003;48.002;7.788;2023-02-07T03:31:52;100379.53;;;-0.86;100.00
5595;BME280;1003;48.002;7.788;2023-02-07T03:34:28;100381.38;;;-0.82;100.00
5595;BME280;1003;48.002;7.788;2023-02-07T03:37:05;100380.66;;;-0.81;100.00
5595;BME280;1003;48.002;7.788;2023-02-07T03:39:35;100366.56;;;-0.82;100.00
5595;BME280;1003;48.002;7.788;2023-02-07T03:42:08;100359.88;;;-0.99;100.00
5595;BME280;1003;48.002;7.788;2023-02-07T03:44:40;100375.88;;;-0.92;100.00
5595;BME280;1003;48.002;7.788;2023-02-07T03:47:08;100383.78;;;-0.83;100.00
5595;BME280;1003;48.002;7.788;2023-02-07T03:49:35;100377.81;;;-0.87;100.00
5595;BME280;1003;48.002;7.788;2023-02-07T03:52:04;100364.22;;;-0.95;100.00
5595;BME280;1003;48.002;7.788;2023-02-07T03:54:31;100378.94;;;-0.96;100.00
5595;BME280;1003;48.002;7.788;2023-02-07T03:56:58;100371.44;;;-0.98;100.00
5595;BME280;1003;48.002;7.788;2023-02-07T03:59:27;100383.53;;;-1.02;100.00
5595;BME280;1003;48.002;7.788;2023-02-07T04:01:54;100399.34;;;-0.99;100.00
5595;BME280;1003;48.002;7.788;2023-02-07T04:04:21;100399.59;;;-1.09;100.00
5595;BME280;1003;48.002;7.788;2023-02-07T04:06:48;100407.13;;;-1.08;100.00
5595;BME280;1003;48.002;7.788;2023-02-07T04:09:17;100419.50;;;-0.76;100.00
5595;BME280;1003;48.002;7.788;2023-02-07T04:11:47;100417.38;;;-0.70;100.00
5595;BME280;1003;48.002;7.788;2023-02-07T04:14:14;100414.91;;;-0.70;100.00
5595;BME280;1003;48.002;7.788;2023-02-07T04:16:44;100433.22;;;-0.82;100.00
5595;BME280;1003;48.002;7.788;2023-02-07T04:19:11;100446.50;;;-0.80;100.00
5595;BME280;1003;48.002;7.788;2023-02-07T04:21:38;100465.22;;;-0.54;100.00
5595;BME280;1003;48.002;7.788;2023-02-07T04:24:05;100449.31;;;-0.59;100.00
5595;BME280;1003;48.002;7.788;2023-02-07T04:26:34;100455.63;;;-0.78;100.00
5595;BME280;1003;48.002;7.788;2023-02-07T04:29:01;100450.59;;;-0.80;100.00
5595;BME280;1003;48.002;7.788;2023-02-07T04:31:28;100448.94;;;-0.65;100.00
5595;BME280;1003;48.002;7.788;2023-02-07T04:33:55;100431.53;;;-0.68;100.00
5595;BME280;1003;48.002;7.788;2023-02-07T04:36:22;100447.63;;;-0.74;100.00
5595;BME280;1003;48.002;7.788;2023-02-07T04:38:49;100422.75;;;-0.77;100.00
5595;BME280;1003;48.002;7.788;2023-02-07T04:41:16;100423.78;;;-0.89;100.00
5595;BME280;1003;48.002;7.788;2023-02-07T04:43:45;100418.94;;;-1.02;100.00
5595;BME280;1003;48.002;7.788;2023-02-07T04:46:12;100441.53;;;-1.09;100.00
5595;BME280;1003;48.002;7.788;2023-02-07T04:48:39;100441.91;;;-1.18;100.00
5595;BME280;1003;48.002;7.788;2023-02-07T04:51:06;100434.31;;;-1.21;100.00
5595;BME280;1003;48.002;7.788;2023-02-07T04:53:33;100447.75;;;-1.16;100.00
5595;BME280;1003;48.002;7.788;2023-02-07T04:56:00;100432.09;;;-1.16;100.00
5595;BME280;1003;48.002;7.788;2023-02-07T04:58:27;100433.78;;;-1.30;100.00
5595;BME280;1003;48.002;7.788;2023-02-07T05:00:56;100431.72;;;-1.37;100.00
5595;BME280;1003;48.002;7.788;2023-02-07T05:03:23;100430.25;;;-1.48;100.00
5595;BME280;1003;48.002;7.788;2023-02-07T05:05:53;100432.44;;;-1.53;100.00
5595;BME280;1003;48.002;7.788;2023-02-07T05:08:20;100434.75;;;-1.56;100.00
5595;BME280;1003;48.002;7.788;2023-02-07T05:10:51;100438.44;;;-1.63;100.00
5595;BME280;1003;48.002;7.788;2023-02-07T05:13:19;100433.56;;;-1.48;100.00
5595;BME280;1003;48.002;7.788;2023-02-07T05:15:46;100416.00;;;-1.39;100.00
5595;BME280;1003;48.002;7.788;2023-02-07T05:18:15;100423.78;;;-1.46;100.00
5595;BME280;1003;48.002;7.788;2023-02-07T05:20:42;100428.66;;;-1.48;100.00
5595;BME280;1003;48.002;7.788;2023-02-07T05:23:10;100417.25;;;-1.46;100.00
5595;BME280;1003;48.002;7.788;2023-02-07T05:25:37;100420.66;;;-1.44;100.00
5595;BME280;1003;48.002;7.788;2023-02-07T05:28:04;100436.84;;;-1.19;100.00
5595;BME280;1003;48.002;7.788;2023-02-07T05:30:31;100451.88;;;-1.29;100.00
5595;BME280;1003;48.002;7.788;2023-02-07T05:32:58;100453.97;;;-1.22;100.00
5595;BME280;1003;48.002;7.788;2023-02-07T05:35:34;100466.94;;;-1.40;100.00
5595;BME280;1003;48.002;7.788;2023-02-07T05:38:02;100471.75;;;-1.41;100.00
5595;BME280;1003;48.002;7.788;2023-02-07T05:40:32;100470.41;;;-1.64;100.00
5595;BME280;1003;48.002;7.788;2023-02-07T05:42:59;100467.59;;;-1.70;100.00
5595;BME280;1003;48.002;7.788;2023-02-07T05:45:26;100472.31;;;-1.73;100.00
5595;BME280;1003;48.002;7.788;2023-02-07T05:47:54;100474.63;;;-1.90;100.00
5595;BME280;1003;48.002;7.788;2023-02-07T05:50:21;100468.94;;;-1.47;100.00
5595;BME280;1003;48.002;7.788;2023-02-07T05:52:50;100465.72;;;-1.46;100.00
5595;BME280;1003;48.002;7.788;2023-02-07T05:55:18;100448.28;;;-1.35;100.00
5595;BME280;1003;48.002;7.788;2023-02-07T05:57:45;100456.31;;;-1.24;100.00
5595;BME280;1003;48.002;7.788;2023-02-07T06:00:17;100450.03;;;-1.19;100.00
5595;BME280;1003;48.002;7.788;2023-02-07T06:02:44;100455.88;;;-1.32;100.00
5595;BME280;1003;48.002;7.788;2023-02-07T06:05:14;100459.91;;;-1.34;100.00
5595;BME280;1003;48.002;7.788;2023-02-07T06:07:42;100468.53;;;-1.40;100.00
5595;BME280;1003;48.002;7.788;2023-02-07T06:10:12;100478.50;;;-1.24;100.00
5595;BME280;1003;48.002;7.788;2023-02-07T06:12:39;100476.31;;;-1.34;100.00
5595;BME280;1003;48.002;7.788;2023-02-07T06:15:08;100474.53;;;-1.22;100.00
5595;BME280;1003;48.002;7.788;2023-02-07T06:17:35;100491.44;;;-1.28;100.00
5595;BME280;1003;48.002;7.788;2023-02-07T06:20:02;100484.72;;;-1.30;100.00
5595;BME280;1003;48.002;7.788;2023-02-07T06:22:29;100502.19;;;-1.41;100.00
5595;BME280;1003;48.002;7.788;2023-02-07T06:24:56;100508.38;;;-1.47;100.00
5595;BME280;1003;48.002;7.788;2023-02-07T06:27:25;100504.50;;;-1.57;100.00
5595;BME280;1003;48.002;7.788;2023-02-07T06:29:52;100509.28;;;-1.60;100.00
5595;BME280;1003;48.002;7.788;2023-02-07T06:32:19;100508.56;;;-1.86;100.00
5595;BME280;1003;48.002;7.788;2023-02-07T06:34:46;100508.91;;;-1.66;100.00
5595;BME280;1003;48.002;7.788;2023-02-07T06:37:13;100507.19;;;-1.67;100.00
5595;BME280;1003;48.002;7.788;2023-02-07T06:39:40;100511.38;;;-1.66;100.00
5595;BME280;1003;48.002;7.788;2023-02-07T06:42:07;100516.09;;;-1.56;100.00
5595;BME280;1003;48.002;7.788;2023-02-07T06:44:35;100503.84;;;-1.82;100.00
5595;BME280;1003;48.002;7.788;2023-02-07T06:47:03;100509.16;;;-2.03;100.00
5595;BME280;1003;48.002;7.788;2023-02-07T06:49:30;100503.34;;;-2.17;100.00
5595;BME280;1003;48.002;7.788;2023-02-07T06:51:57;100500.31;;;-2.39;100.00
5595;BME280;1003;48.002;7.788;2023-02-07T06:54:24;100513.09;;;-2.45;100.00
5595;BME280;1003;48.002;7.788;2023-02-07T06:56:51;100496.34;;;-2.37;100.00
5595;BME280;1003;48.002;7.788;2023-02-07T06:59:18;100499.75;;;-2.48;100.00
5595;BME280;1003;48.002;7.788;2023-02-07T07:01:47;100500.84;;;-2.70;100.00
5595;BME280;1003;48.002;7.788;2023-02-07T07:04:14;100493.16;;;-2.87;100.00
5595;BME280;1003;48.002;7.788;2023-02-07T07:06:41;100489.22;;;-2.97;100.00
5595;BME280;1003;48.002;7.788;2023-02-07T07:09:08;100491.59;;;-2.99;100.00
5595;BME280;1003;48.002;7.788;2023-02-07T07:11:35;100486.94;;;-3.07;100.00
5595;BME280;1003;48.002;7.788;2023-02-07T07:14:03;100481.47;;;-3.03;100.00
5595;BME280;1003;48.002;7.788;2023-02-07T07:16:30;100485.44;;;-3.05;100.00
5595;BME280;1003;48.002;7.788;2023-02-07T07:18:59;100490.00;;;-2.98;100.00
5595;BME280;1003;48.002;7.788;2023-02-07T07:21:26;100492.53;;;-2.72;100.00
5595;BME280;1003;48.002;7.788;2023-02-07T07:23:54;100489.97;;;-2.60;100.00
5595;BME280;1003;48.002;7.788;2023-02-07T07:26:21;100489.22;;;-2.59;100.00
5595;BME280;1003;48.002;7.788;2023-02-07T07:28:48;100489.16;;;-2.47;100.00
5595;BME280;1003;48.002;7.788;2023-02-07T07:31:15;100486.59;;;-2.49;100.00
5595;BME280;1003;48.002;7.788;2023-02-07T07:33:43;100492.28;;;-2.50;100.00
5595;BME280;1003;48.002;7.788;2023-02-07T07:36:11;100491.63;;;-2.47;100.00
5595;BME280;1003;48.002;7.788;2023-02-07T07:38:38;100490.75;;;-2.48;100.00
5595;BME280;1003;48.002;7.788;2023-02-07T07:41:05;100492.94;;;-2.39;100.00
5595;BME280;1003;48.002;7.788;2023-02-07T07:43:32;100496.06;;;-2.28;100.00
5595;BME280;1003;48.002;7.788;2023-02-07T07:45:59;100494.75;;;-1.97;100.00
5595;BME280;1003;48.002;7.788;2023-02-07T07:48:27;100497.56;;;-1.91;100.00
5595;BME280;1003;48.002;7.788;2023-02-07T07:50:55;100492.84;;;-1.88;100.00
5595;BME280;1003;48.002;7.788;2023-02-07T07:53:24;100483.00;;;-1.88;100.00
5595;BME280;1003;48.002;7.788;2023-02-07T07:55:53;100490.53;;;-1.85;100.00
5595;BME280;1003;48.002;7.788;2023-02-07T07:58:22;100498.63;;;-1.87;100.00
5595;BME280;1003;48.002;7.788;2023-02-07T08:00:49;100500.13;;;-1.89;100.00
5595;BME280;1003;48.002;7.788;2023-02-07T08:03:18;100507.50;;;-1.89;100.00
5595;BME280;1003;48.002;7.788;2023-02-07T08:05:46;100505.03;;;-1.89;100.00
5595;BME280;1003;48.002;7.788;2023-02-07T08:08:14;100508.84;;;-1.81;100.00
5595;BME280;1003;48.002;7.788;2023-02-07T08:10:43;100514.59;;;-1.67;100.00
5595;BME280;1003;48.002;7.788;2023-02-07T08:13:10;100514.75;;;-1.51;100.00
5595;BME280;1003;48.002;7.788;2023-02-07T08:15:37;100512.25;;;-1.38;100.00
5595;BME280;1003;48.002;7.788;2023-02-07T08:18:05;100525.28;;;-1.25;100.00
5595;BME280;1003;48.002;7.788;2023-02-07T08:20:32;100522.09;;;-1.10;100.00
5595;BME280;1003;48.002;7.788;2023-02-07T08:22:59;100520.09;;;-1.02;100.00
5595;BME280;1003;48.002;7.788;2023-02-07T08:25:27;100513.19;;;-0.93;100.00
5595;BME280;1003;48.002;7.788;2023-02-07T08:28:00;100514.91;;;-0.92;100.00
5595;BME280;1003;48.002;7.788;2023-02-07T08:30:27;100523.41;;;-0.87;100.00
5595;BME280;1003;48.002;7.788;2023-02-07T08:32:54;100519.59;;;-0.82;100.00
5595;BME280;1003;48.002;7.788;2023-02-07T08:35:22;100524.22;;;-0.73;100.00
5595;BME280;1003;48.002;7.788;2023-02-07T08:37:51;100534.78;;;-0.61;100.00
5595;BME280;1003;48.002;7.788;2023-02-07T08:40:18;100537.69;;;-0.53;100.00
5595;BME280;1003;48.002;7.788;2023-02-07T08:42:45;100543.03;;;-0.45;100.00
5595;BME280;1003;48.002;7.788;2023-02-07T08:45:14;100551.63;;;-0.39;100.00
5595;BME280;1003;48.002;7.788;2023-02-07T08:47:42;100557.03;;;-0.31;100.00
5595;BME280;1003;48.002;7.788;2023-02-07T08:50:11;100558.97;;;-0.25;100.00
5595;BME280;1003;48.002;7.788;2023-02-07T08:52:38;100568.75;;;-0.12;100.00
5595;BME280;1003;48.002;7.788;2023-02-07T08:55:07;100576.69;;;-0.03;100.00
5595;BME280;1003;48.002;7.788;2023-02-07T08:57:34;100591.19;;;0.06;100.00
5595;BME280;1003;48.002;7.788;2023-02-07T09:00:03;100597.97;;;0.10;100.00
5595;BME280;1003;48.002;7.788;2023-02-07T09:02:33;100600.09;;;0.04;100.00
5595;BME280;1003;48.002;7.788;2023-02-07T09:05:00;100603.41;;;0.19;100.00
5595;BME280;1003;48.002;7.788;2023-02-07T09:07:27;100605.28;;;0.23;100.00
5595;BME280;1003;48.002;7.788;2023-02-07T09:09:56;100604.75;;;0.43;100.00
5595;BME280;1003;48.002;7.788;2023-02-07T09:12:23;100616.91;;;0.55;100.00
5595;BME280;1003;48.002;7.788;2023-02-07T09:14:50;100617.91;;;0.59;100.00
5595;BME280;1003;48.002;7.788;2023-02-07T09:17:17;100624.25;;;0.70;100.00
5595;BME280;1003;48.002;7.788;2023-02-07T09:19:45;100629.31;;;0.71;100.00
5595;BME280;1003;48.002;7.788;2023-02-07T09:22:12;100625.25;;;0.57;100.00
5595;BME280;1003;48.002;7.788;2023-02-07T09:24:40;100626.59;;;0.67;100.00
5595;BME280;1003;48.002;7.788;2023-02-07T09:27:07;100630.25;;;0.73;100.00
5595;BME280;1003;48.002;7.788;2023-02-07T09:29:34;100626.09;;;0.89;100.00
5595;BME280;1003;48.002;7.788;2023-02-07T09:32:01;100632.91;;;0.93;100.00
5595;BME280;1003;48.002;7.788;2023-02-07T09:34:31;100641.19;;;0.62;100.00
5595;BME280;1003;48.002;7.788;2023-02-07T09:36:59;100643.31;;;0.71;100.00
5595;BME280;1003;48.002;7.788;2023-02-07T09:39:26;100649.38;;;0.92;100.00
5595;BME280;1003;48.002;7.788;2023-02-07T09:42:07;100656.84;;;1.09;100.00
5595;BME280;1003;48.002;7.788;2023-02-07T09:44:52;100666.59;;;1.22;100.00
5595;BME280;1003;48.002;7.788;2023-02-07T09:47:23;100665.91;;;1.41;100.00
5595;BME280;1003;48.002;7.788;2023-02-07T09:49:54;100681.06;;;1.14;100.00
5595;BME280;1003;48.002;7.788;2023-02-07T09:52:32;100688.91;;;1.07;100.00
5595;BME280;1003;48.002;7.788;2023-02-07T09:55:00;100693.88;;;1.07;100.00
5595;BME280;1003;48.002;7.788;2023-02-07T09:57:35;100703.16;;;1.11;100.00
5595;BME280;1003;48.002;7.788;2023-02-07T10:00:07;100707.53;;;1.15;100.00
5595;BME280;1003;48.002;7.788;2023-02-07T10:02:51;100710.28;;;1.05;100.00
5595;BME280;1003;48.002;7.788;2023-02-07T10:05:28;100698.94;;;1.09;100.00
5595;BME280;1003;48.002;7.788;2023-02-07T10:08:00;100706.00;;;1.50;100.00
5595;BME280;1003;48.002;7.788;2023-02-07T10:10:38;100711.19;;;1.54;100.00
5595;BME280;1003;48.002;7.788;2023-02-07T10:13:30;100700.50;;;1.39;100.00
5595;BME280;1003;48.002;7.788;2023-02-07T10:16:28;100704.47;;;1.52;100.00
5595;BME280;1003;48.002;7.788;2023-02-07T10:19:10;100704.84;;;1.60;100.00
5595;BME280;1003;48.002;7.788;2023-02-07T10:21:55;100712.69;;;1.67;100.00
5595;BME280;1003;48.002;7.788;2023-02-07T10:25:08;100708.63;;;1.69;100.00
5595;BME280;1003;48.002;7.788;2023-02-07T10:27:56;100696.53;;;1.75;100.00
5595;BME280;1003;48.002;7.788;2023-02-07T10:30:33;100702.34;;;1.76;100.00
5595;BME280;1003;48.002;7.788;2023-02-07T10:33:12;100705.41;;;1.88;100.00
5595;BME280;1003;48.002;7.788;2023-02-07T10:35:43;100703.72;;;1.87;100.00
5595;BME280;1003;48.002;7.788;2023-02-07T10:38:22;100700.25;;;2.00;100.00
5595;BME280;1003;48.002;7.788;2023-02-07T10:40:59;100704.16;;;2.13;100.00
5595;BME280;1003;48.002;7.788;2023-02-07T10:43:31;100706.69;;;2.14;100.00
5595;BME280;1003;48.002;7.788;2023-02-07T10:46:02;100713.44;;;2.17;100.00
5595;BME280;1003;48.002;7.788;2023-02-07T10:48:31;100719.31;;;2.19;100.00
5595;BME280;1003;48.002;7.788;2023-02-07T10:51:02;100715.94;;;2.34;100.00
5595;BME280;1003;48.002;7.788;2023-02-07T10:53:43;100719.25;;;2.17;100.00
5595;BME280;1003;48.002;7.788;2023-02-07T10:56:17;100715.88;;;2.33;100.00
5595;BME280;1003;48.002;7.788;2023-02-07T10:58:45;100726.44;;;2.47;100.00
5595;BME280;1003;48.002;7.788;2023-02-07T11:01:18;100720.50;;;2.43;100.00
5595;BME280;1003;48.002;7.788;2023-02-07T11:03:46;100710.53;;;2.25;100.00
5595;BME280;1003;48.002;7.788;2023-02-07T11:06:23;100709.41;;;2.36;100.00
5595;BME280;1003;48.002;7.788;2023-02-07T11:09:12;100709.56;;;2.40;100.00
5595;BME280;1003;48.002;7.788;2023-02-07T11:11:40;100702.91;;;2.56;100.00
5595;BME280;1003;48.002;7.788;2023-02-07T11:14:18;100704.03;;;2.63;100.00
5595;BME280;1003;48.002;7.788;2023-02-07T11:16:52;100698.81;;;2.57;100.00
5595;BME280;1003;48.002;7.788;2023-02-07T11:19:23;100703.78;;;2.75;100.00
5595;BME280;1003;48.002;7.788;2023-02-07T11:21:56;100699.78;;;2.96;100.00
5595;BME280;1003;48.002;7.788;2023-02-07T11:24:35;100699.47;;;3.08;100.00
5595;BME280;1003;48.002;7.788;2023-02-07T11:27:12;100695.78;;;3.00;100.00
5595;BME280;1003;48.002;7.788;2023-02-07T11:29:48;100687.66;;;2.84;100.00
5595;BME280;1003;48.002;7.788;2023-02-07T11:32:16;100686.50;;;2.96;100.00
5595;BME280;1003;48.002;7.788;2023-02-07T11:34:48;100680.56;;;2.92;100.00
5595;BME280;1003;48.002;7.788;2023-02-07T11:37:22;100683.78;;;3.09;100.00
5595;BME280;1003;48.002;7.788;2023-02-07T11:39:53;100682.56;;;3.38;100.00
5595;BME280;1003;48.002;7.788;2023-02-07T11:42:29;100695.84;;;3.19;100.00
5595;BME280;1003;48.002;7.788;2023-02-07T11:44:56;100687.97;;;3.10;100.00
5595;BME280;1003;48.002;7.788;2023-02-07T11:47:30;100682.03;;;3.26;100.00
5595;BME280;1003;48.002;7.788;2023-02-07T11:50:00;100685.03;;;3.38;100.00
5595;BME280;1003;48.002;7.788;2023-02-07T11:52:31;100685.78;;;3.35;100.00
5595;BME280;1003;48.002;7.788;2023-02-07T11:55:06;100697.09;;;3.29;100.00
5595;BME280;1003;48.002;7.788;2023-02-07T11:57:35;100676.44;;;3.12;100.00
5595;BME280;1003;48.002;7.788;2023-02-07T12:00:06;100664.78;;;3.48;100.00
5595;BME280;1003;48.002;7.788;2023-02-07T12:02:50;100670.28;;;3.41;100.00
5595;BME280;1003;48.002;7.788;2023-02-07T12:05:21;100672.16;;;3.47;100.00
5595;BME280;1003;48.002;7.788;2023-02-07T12:07:56;100676.56;;;3.52;100.00
5595;BME280;1003;48.002;7.788;2023-02-07T12:10:29;100680.53;;;3.68;100.00
5595;BME280;1003;48.002;7.788;2023-02-07T12:13:05;100672.19;;;3.87;100.00
5595;BME280;1003;48.002;7.788;2023-02-07T12:15:38;100674.22;;;3.76;100.00
5595;BME280;1003;48.002;7.788;2023-02-07T12:18:19;100670.41;;;3.63;100.00
5595;BME280;1003;48.002;7.788;2023-02-07T12:20:57;100662.84;;;3.81;100.00
5595;BME280;1003;48.002;7.788;2023-02-07T12:23:38;100658.84;;;3.85;100.00
5595;BME280;1003;48.002;7.788;2023-02-07T12:26:18;100661.53;;;3.89;100.00
5595;BME280;1003;48.002;7.788;2023-02-07T12:29:08;100654.47;;;3.79;100.00
5595;BME280;1003;48.002;7.788;2023-02-07T12:31:50;100654.91;;;3.90;100.00
5595;BME280;1003;48.002;7.788;2023-02-07T12:34:29;100661.34;;;3.85;100.00
5595;BME280;1003;48.002;7.788;2023-02-07T12:37:07;100659.41;;;3.99;100.00
5595;BME280;1003;48.002;7.788;2023-02-07T12:39:45;100655.47;;;4.04;100.00
5595;BME280;1003;48.002;7.788;2023-02-07T12:42:32;100654.06;;;4.10;100.00
5595;BME280;1003;48.002;7.788;2023-02-07T12:45:08;100655.28;;;4.20;100.00
5595;BME280;1003;48.002;7.788;2023-02-07T12:47:49;100661.53;;;4.10;100.00
5595;BME280;1003;48.002;7.788;2023-02-07T12:50:50;100655.03;;;4.14;100.00
5595;BME280;1003;48.002;7.788;2023-02-07T12:53:43;100661.63;;;4.34;100.00
5595;BME280;1003;48.002;7.788;2023-02-07T12:56:33;100666.09;;;4.20;100.00
5595;BME280;1003;48.002;7.788;2023-02-07T12:59:19;100669.53;;;4.24;100.00
5595;BME280;1003;48.002;7.788;2023-02-07T13:02:06;100672.28;;;4.09;100.00
5595;BME280;1003;48.002;7.788;2023-02-07T13:04:56;100674.22;;;4.16;100.00
5595;BME280;1003;48.002;7.788;2023-02-07T13:07:42;100671.50;;;4.31;100.00
5595;BME280;1003;48.002;7.788;2023-02-07T13:10:22;100673.97;;;4.31;100.00
5595;BME280;1003;48.002;7.788;2023-02-07T13:12:57;100663.38;;;4.14;100.00
5595;BME280;1003;48.002;7.788;2023-02-07T13:15:36;100660.69;;;4.31;100.00
5595;BME280;1003;48.002;7.788;2023-02-07T13:18:17;100670.66;;;4.10;100.00
5595;BME280;1003;48.002;7.788;2023-02-07T13:21:00;100664.25;;;3.95;100.00
5595;BME280;1003;48.002;7.788;2023-02-07T13:23:33;100667.34;;;4.11;100.00
5595;BME280;1003;48.002;7.788;2023-02-07T13:26:08;100663.19;;;4.10;100.00
5595;BME280;1003;48.002;7.788;2023-02-07T13:28:44;100660.13;;;4.17;100.00
5595;BME280;1003;48.002;7.788;2023-02-07T13:31:17;100664.13;;;4.34;100.00
5595;BME280;1003;48.002;7.788;2023-02-07T13:33:48;100664.13;;;4.13;100.00
5595;BME280;1003;48.002;7.788;2023-02-07T13:36:25;100665.59;;;4.08;100.00